sensor_id;sensor_type;location;lat;lon;timestamp;pressure;altitude;pressure_sealevel;temperature;humidity
14612;BME280;7392;52.078;11.650;2022-08-19T00:01:38;100349.56;;;21.24;100.00
14612;BME280;7392;52.078;11.650;2022-08-19T00:04:09;100349.63;;;21.23;100.00
14612;BME280;7392;52.078;11.650;2022-08-19T00:06:40;100347.91;;;21.22;100.00
14612;BME280;7392;52.078;11.650;2022-08-19T00:09:12;100350.69;;;21.20;100.00
14612;BME280;7392;52.078;11.650;2022-08-19T00:11:41;100346.31;;;21.18;100.00
14612;BME280;7392;52.078;11.650;2022-08-19T00:14:13;100347.34;;;21.15;100.00
14612;BME280;7392;52.078;11.650;2022-08-19T00:16:44;100352.91;;;21.12;100.00
14612;BME280;7392;52.078;11.650;2022-08-19T00:19:13;100350.28;;;21.10;100.00
14612;BME280;7392;52.078;11.650;2022-08-19T00:21:41;100345.94;;;21.08;100.00
14612;BME280;7392;52.078;11.650;2022-08-19T00:24:13;100345.13;;;21.06;100.00
14612;BME280;7392;52.078;11.650;2022-08-19T00:26:43;100347.09;;;21.02;100.00
14612;BME280;7392;52.078;11.650;2022-08-19T00:29:13;100341.78;;;21.01;100.00
14612;BME280;7392;52.078;11.650;2022-08-19T00:31:42;100343.63;;;21.00;100.00
14612;BME280;7392;52.078;11.650;2022-08-19T00:34:11;100331.06;;;20.99;100.00
14612;BME280;7392;52.078;11.650;2022-08-19T00:36:41;100326.78;;;20.95;100.00
14612;BME280;7392;52.078;11.650;2022-08-19T00:39:10;100317.84;;;20.95;100.00
14612;BME280;7392;52.078;11.650;2022-08-19T00:41:40;100318.84;;;20.92;100.00
14612;BME280;7392;52.078;11.650;2022-08-19T00:44:12;100318.13;;;20.88;100.00
14612;BME280;7392;52.078;11.650;2022-08-19T00:46:44;100319.09;;;20.87;100.00
14612;BME280;7392;52.078;11.650;2022-08-19T00:49:28;100316.50;;;20.86;100.00
14612;BME280;7392;52.078;11.650;2022-08-19T00:52:00;100310.28;;;20.84;100.00
14612;BME280;7392;52.078;11.650;2022-08-19T00:54:29;100309.50;;;20.82;100.00
14612;BME280;7392;52.078;11.650;2022-08-19T00:57:02;100315.94;;;20.79;100.00
14612;BME280;7392;52.078;11.650;2022-08-19T00:59:34;100315.84;;;20.81;100.00
14612;BME280;7392;52.078;11.650;2022-08-19T01:02:23;100314.16;;;20.78;100.00
14612;BME280;7392;52.078;11.650;2022-08-19T01:04:52;100309.75;;;20.77;100.00
14612;BME280;7392;52.078;11.650;2022-08-19T01:07:20;100321.47;;;20.76;100.00
14612;BME280;7392;52.078;11.650;2022-08-19T01:09:49;100322.41;;;20.75;100.00
14612;BME280;7392;52.078;11.650;2022-08-19T01:12:19;100329.66;;;20.74;100.00
14612;BME280;7392;52.078;11.650;2022-08-19T01:14:49;100328.78;;;20.74;100.00
14612;BME280;7392;52.078;11.650;2022-08-19T01:17:17;100335.97;;;20.73;100.00
14612;BME280;7392;52.078;11.650;2022-08-19T01:19:47;100334.19;;;20.74;100.00
14612;BME280;7392;52.078;11.650;2022-08-19T01:22:19;100330.50;;;20.75;100.00
14612;BME280;7392;52.078;11.650;2022-08-19T01:24:58;100327.81;;;20.75;100.00
14612;BME280;7392;52.078;11.650;2022-08-19T01:27:27;100329.66;;;20.74;100.00
14612;BME280;7392;52.078;11.650;2022-08-19T01:30:11;100318.84;;;20.74;100.00
14612;BME280;7392;52.078;11.650;2022-08-19T01:32:39;100317.09;;;20.73;100.00
14612;BME280;7392;52.078;11.650;2022-08-19T01:35:09;100306.50;;;20.70;100.00
14612;BME280;7392;52.078;11.650;2022-08-19T01:37:45;100304.72;;;20.69;100.00
14612;BME280;7392;52.078;11.650;2022-08-19T01:40:16;100310.19;;;20.68;100.00
14612;BME280;7392;52.078;11.650;2022-08-19T01:42:46;100315.66;;;20.66;100.00
14612;BME280;7392;52.078;11.650;2022-08-19T01:45:14;100319.34;;;20.65;100.00
14612;BME280;7392;52.078;11.650;2022-08-19T01:47:42;100335.53;;;20.65;100.00
14612;BME280;7392;52.078;11.650;2022-08-19T01:50:23;100334.63;;;20.65;100.00
14612;BME280;7392;52.078;11.650;2022-08-19T01:52:52;100332.91;;;20.64;100.00
14612;BME280;7392;52.078;11.650;2022-08-19T01:55:35;100341.00;;;20.64;100.00
14612;BME280;7392;52.078;11.650;2022-08-19T01:58:08;100336.53;;;20.63;100.00
14612;BME280;7392;52.078;11.650;2022-08-19T02:00:37;100340.09;;;20.63;100.00
14612;BME280;7392;52.078;11.650;2022-08-19T02:03:05;100336.56;;;20.61;100.00
14612;BME280;7392;52.078;11.650;2022-08-19T02:05:35;100335.72;;;20.61;100.00
14612;BME280;7392;52.078;11.650;2022-08-19T02:08:04;100333.00;;;20.61;100.00
14612;BME280;7392;52.078;11.650;2022-08-19T02:10:32;100341.09;;;20.61;100.00
14612;BME280;7392;52.078;11.650;2022-08-19T02:13:01;100342.03;;;20.60;100.00
14612;BME280;7392;52.078;11.650;2022-08-19T02:15:29;100328.47;;;20.61;100.00
14612;BME280;7392;52.078;11.650;2022-08-19T02:17:58;100328.47;;;20.61;100.00
14612;BME280;7392;52.078;11.650;2022-08-19T02:20:25;100323.16;;;20.60;100.00
14612;BME280;7392;52.078;11.650;2022-08-19T02:22:53;100321.38;;;20.60;100.00
14612;BME280;7392;52.078;11.650;2022-08-19T02:25:21;100325.00;;;20.59;100.00
14612;BME280;7392;52.078;11.650;2022-08-19T02:27:49;100325.00;;;20.59;100.00
14612;BME280;7392;52.078;11.650;2022-08-19T02:30:19;100319.75;;;20.56;100.00
14612;BME280;7392;52.078;11.650;2022-08-19T02:32:47;100318.03;;;20.55;100.00
14612;BME280;7392;52.078;11.650;2022-08-19T02:35:15;100308.09;;;20.55;100.00
14612;BME280;7392;52.078;11.650;2022-08-19T02:37:43;100317.13;;;20.54;100.00
14612;BME280;7392;52.078;11.650;2022-08-19T02:40:31;100304.63;;;20.53;100.00
14612;BME280;7392;52.078;11.650;2022-08-19T02:43:02;100298.31;;;20.53;100.00
14612;BME280;7392;52.078;11.650;2022-08-19T02:45:34;100293.97;;;20.50;100.00
14612;BME280;7392;52.078;11.650;2022-08-19T02:48:07;100294.91;;;20.49;100.00
14612;BME280;7392;52.078;11.650;2022-08-19T02:50:48;100285.09;;;20.48;100.00
14612;BME280;7392;52.078;11.650;2022-08-19T02:53:19;100287.88;;;20.47;100.00
14612;BME280;7392;52.078;11.650;2022-08-19T02:55:49;100287.06;;;20.45;100.00
14612;BME280;7392;52.078;11.650;2022-08-19T02:58:19;100297.88;;;20.45;100.00
14612;BME280;7392;52.078;11.650;2022-08-19T03:00:51;100282.69;;;20.42;100.00
14612;BME280;7392;52.078;11.650;2022-08-19T03:03:20;100281.84;;;20.42;100.00
14612;BME280;7392;52.078;11.650;2022-08-19T03:05:48;100277.44;;;20.39;100.00
14612;BME280;7392;52.078;11.650;2022-08-19T03:08:23;100271.28;;;20.37;100.00
14612;BME280;7392;52.078;11.650;2022-08-19T03:10:52;100269.63;;;20.34;100.00
14612;BME280;7392;52.078;11.650;2022-08-19T03:13:20;100277.78;;;20.33;100.00
14612;BME280;7392;52.078;11.650;2022-08-19T03:15:50;100281.56;;;20.29;100.00
14612;BME280;7392;52.078;11.650;2022-08-19T03:18:18;100288.94;;;20.25;100.00
14612;BME280;7392;52.078;11.650;2022-08-19T03:20:50;100284.56;;;20.23;100.00
14612;BME280;7392;52.078;11.650;2022-08-19T03:23:19;100278.38;;;20.21;100.00
14612;BME280;7392;52.078;11.650;2022-08-19T03:25:49;100274.00;;;20.18;100.00
14612;BME280;7392;52.078;11.650;2022-08-19T03:28:37;100275.13;;;20.14;100.00
14612;BME280;7392;52.078;11.650;2022-08-19T03:31:10;100269.81;;;20.12;100.00
14612;BME280;7392;52.078;11.650;2022-08-19T03:33:59;100268.13;;;20.10;100.00
14612;BME280;7392;52.078;11.650;2022-08-19T03:36:29;100271.84;;;20.07;100.00
14612;BME280;7392;52.078;11.650;2022-08-19T03:38:59;100282.78;;;20.04;100.00
14612;BME280;7392;52.078;11.650;2022-08-19T03:41:29;100289.09;;;20.03;100.00
14612;BME280;7392;52.078;11.650;2022-08-19T03:44:12;100296.47;;;19.99;100.00
14612;BME280;7392;52.078;11.650;2022-08-19T03:46:46;100292.13;;;19.97;100.00
14612;BME280;7392;52.078;11.650;2022-08-19T03:49:15;100286.88;;;19.94;100.00
14612;BME280;7392;52.078;11.650;2022-08-19T03:51:45;100284.25;;;19.92;100.00
14612;BME280;7392;52.078;11.650;2022-08-19T03:54:15;100286.16;;;19.90;100.00
14612;BME280;7392;52.078;11.650;2022-08-19T03:56:45;100278.13;;;19.89;100.00
14612;BME280;7392;52.078;11.650;2022-08-19T03:59:19;100283.53;;;19.89;100.00
14612;BME280;7392;52.078;11.650;2022-08-19T04:01:49;100286.28;;;19.87;100.00
14612;BME280;7392;52.078;11.650;2022-08-19T04:04:17;100293.50;;;19.87;100.00
14612;BME280;7392;52.078;11.650;2022-08-19T04:06:45;100280.97;;;19.86;100.00
14612;BME280;7392;52.078;11.650;2022-08-19T04:09:14;100281.84;;;19.86;100.00
14612;BME280;7392;52.078;11.650;2022-08-19T04:11:45;100286.44;;;19.84;100.00
14612;BME280;7392;52.078;11.650;2022-08-19T04:14:16;100284.59;;;19.85;100.00
14612;BME280;7392;52.078;11.650;2022-08-19T04:16:45;100299.03;;;19.84;100.00
14612;BME280;7392;52.078;11.650;2022-08-19T04:19:16;100290.09;;;19.83;100.00
14612;BME280;7392;52.078;11.650;2022-08-19T04:21:47;100298.25;;;19.82;100.00
14612;BME280;7392;52.078;11.650;2022-08-19T04:24:15;100299.25;;;19.79;100.00
14612;BME280;7392;52.078;11.650;2022-08-19T04:26:44;100311.00;;;19.78;100.00
14612;BME280;7392;52.078;11.650;2022-08-19T04:29:14;100314.69;;;19.75;100.00
14612;BME280;7392;52.078;11.650;2022-08-19T04:31:43;100313.84;;;19.73;100.00
14612;BME280;7392;52.078;11.650;2022-08-19T04:34:13;100319.25;;;19.73;100.00
14612;BME280;7392;52.078;11.650;2022-08-19T04:36:45;100312.16;;;19.71;100.00
14612;BME280;7392;52.078;11.650;2022-08-19T04:39:15;100323.91;;;19.70;100.00
14612;BME280;7392;52.078;11.650;2022-08-19T04:41:43;100329.44;;;19.67;100.00
14612;BME280;7392;52.078;11.650;2022-08-19T04:44:30;100341.13;;;19.66;100.00
14612;BME280;7392;52.078;11.650;2022-08-19T04:46:59;100351.91;;;19.66;100.00
14612;BME280;7392;52.078;11.650;2022-08-19T04:49:36;100344.94;;;19.61;100.00
14612;BME280;7392;52.078;11.650;2022-08-19T04:52:05;100359.31;;;19.60;100.00
14612;BME280;7392;52.078;11.650;2022-08-19T04:54:35;100363.84;;;19.60;100.00
14612;BME280;7392;52.078;11.650;2022-08-19T04:57:07;100364.78;;;19.59;100.00
14612;BME280;7392;52.078;11.650;2022-08-19T04:59:38;100365.75;;;19.58;100.00
14612;BME280;7392;52.078;11.650;2022-08-19T05:02:07;100358.59;;;19.57;100.00
14612;BME280;7392;52.078;11.650;2022-08-19T05:04:35;100352.22;;;19.59;100.00
14612;BME280;7392;52.078;11.650;2022-08-19T05:07:07;100348.69;;;19.57;100.00
14612;BME280;7392;52.078;11.650;2022-08-19T05:09:36;100348.63;;;19.59;100.00
14612;BME280;7392;52.078;11.650;2022-08-19T05:12:24;100354.06;;;19.57;100.00
14612;BME280;7392;52.078;11.650;2022-08-19T05:14:55;100352.41;;;19.55;100.00
14612;BME280;7392;52.078;11.650;2022-08-19T05:17:24;100358.72;;;19.54;100.00
14612;BME280;7392;52.078;11.650;2022-08-19T05:19:55;100354.31;;;19.53;100.00
14612;BME280;7392;52.078;11.650;2022-08-19T05:22:42;100355.16;;;19.53;100.00
14612;BME280;7392;52.078;11.650;2022-08-19T05:25:14;100351.63;;;19.53;100.00
14612;BME280;7392;52.078;11.650;2022-08-19T05:27:44;100353.34;;;19.54;100.00
14612;BME280;7392;52.078;11.650;2022-08-19T05:30:13;100349.72;;;19.55;100.00
14612;BME280;7392;52.078;11.650;2022-08-19T05:32:41;100344.25;;;19.56;100.00
14612;BME280;7392;52.078;11.650;2022-08-19T05:35:10;100351.38;;;19.57;100.00
14612;BME280;7392;52.078;11.650;2022-08-19T05:37:38;100359.41;;;19.59;100.00
14612;BME280;7392;52.078;11.650;2022-08-19T05:40:09;100362.03;;;19.60;100.00
14612;BME280;7392;52.078;11.650;2022-08-19T05:42:38;100349.34;;;19.62;100.00
14612;BME280;7392;52.078;11.650;2022-08-19T05:45:07;100363.66;;;19.65;100.00
14612;BME280;7392;52.078;11.650;2022-08-19T05:47:35;100369.91;;;19.65;100.00
14612;BME280;7392;52.078;11.650;2022-08-19T05:50:08;100369.03;;;19.65;100.00
14612;BME280;7392;52.078;11.650;2022-08-19T05:52:37;100367.22;;;19.65;100.00
14612;BME280;7392;52.078;11.650;2022-08-19T05:55:18;100373.53;;;19.64;100.00
14612;BME280;7392;52.078;11.650;2022-08-19T05:57:47;100371.78;;;19.63;100.00
14612;BME280;7392;52.078;11.650;2022-08-19T06:00:15;100377.19;;;19.63;100.00
14612;BME280;7392;52.078;11.650;2022-08-19T06:02:49;100388.88;;;19.62;100.00
14612;BME280;7392;52.078;11.650;2022-08-19T06:05:18;100389.75;;;19.62;100.00
14612;BME280;7392;52.078;11.650;2022-08-19T06:07:46;100398.72;;;19.63;100.00
14612;BME280;7392;52.078;11.650;2022-08-19T06:10:14;100393.41;;;19.61;100.00
14612;BME280;7392;52.078;11.650;2022-08-19T06:12:43;100398.94;;;19.58;100.00
14612;BME280;7392;52.078;11.650;2022-08-19T06:15:13;100398.06;;;19.58;100.00
14612;BME280;7392;52.078;11.650;2022-08-19T06:17:42;100397.09;;;19.59;100.00
14612;BME280;7392;52.078;11.650;2022-08-19T06:20:13;100393.53;;;19.58;100.00
14612;BME280;7392;52.078;11.650;2022-08-19T06:22:43;100414.16;;;19.59;100.00
14612;BME280;7392;52.078;11.650;2022-08-19T06:25:12;100426.72;;;19.59;100.00
14612;BME280;7392;52.078;11.650;2022-08-19T06:27:41;100420.53;;;19.57;100.00
14612;BME280;7392;52.078;11.650;2022-08-19T06:30:30;100425.91;;;19.57;100.00
14612;BME280;7392;52.078;11.650;2022-08-19T06:32:58;100431.31;;;19.57;100.00
14612;BME280;7392;52.078;11.650;2022-08-19T06:35:26;100425.13;;;19.55;100.00
14612;BME280;7392;52.078;11.650;2022-08-19T06:37:55;100436.03;;;19.52;100.00
14612;BME280;7392;52.078;11.650;2022-08-19T06:40:24;100429.91;;;19.48;100.00
14612;BME280;7392;52.078;11.650;2022-08-19T06:42:53;100446.91;;;19.49;100.00
14612;BME280;7392;52.078;11.650;2022-08-19T06:45:23;100447.00;;;19.47;100.00
14612;BME280;7392;52.078;11.650;2022-08-19T06:48:02;100454.13;;;19.48;100.00
14612;BME280;7392;52.078;11.650;2022-08-19T06:50:30;100447.88;;;19.48;100.00
14612;BME280;7392;52.078;11.650;2022-08-19T06:53:02;100451.44;;;19.48;100.00
14612;BME280;7392;52.078;11.650;2022-08-19T06:55:32;100454.13;;;19.48;100.00
14612;BME280;7392;52.078;11.650;2022-08-19T06:58:01;100455.06;;;19.47;100.00
14612;BME280;7392;52.078;11.650;2022-08-19T07:00:31;100454.31;;;19.43;100.00
14612;BME280;7392;52.078;11.650;2022-08-19T07:03:00;100457.09;;;19.42;100.00
14612;BME280;7392;52.078;11.650;2022-08-19T07:05:39;100457.03;;;19.43;100.00
14612;BME280;7392;52.078;11.650;2022-08-19T07:08:11;100457.97;;;19.42;100.00
14612;BME280;7392;52.078;11.650;2022-08-19T07:10:43;100462.41;;;19.43;100.00
14612;BME280;7392;52.078;11.650;2022-08-19T07:13:11;100461.47;;;19.44;100.00
14612;BME280;7392;52.078;11.650;2022-08-19T07:15:39;100458.84;;;19.43;100.00
14612;BME280;7392;52.078;11.650;2022-08-19T07:18:08;100462.56;;;19.40;100.00
14612;BME280;7392;52.078;11.650;2022-08-19T07:20:39;100461.59;;;19.41;100.00
14612;BME280;7392;52.078;11.650;2022-08-19T07:23:08;100453.66;;;19.38;100.00
14612;BME280;7392;52.078;11.650;2022-08-19T07:25:42;100452.78;;;19.38;100.00
14612;BME280;7392;52.078;11.650;2022-08-19T07:28:18;100454.56;;;19.39;100.00
14612;BME280;7392;52.078;11.650;2022-08-19T07:30:51;100454.56;;;19.39;100.00
14612;BME280;7392;52.078;11.650;2022-08-19T07:33:19;100454.50;;;19.40;100.00
14612;BME280;7392;52.078;11.650;2022-08-19T07:35:48;100468.81;;;19.41;100.00
14612;BME280;7392;52.078;11.650;2022-08-19T07:38:17;100481.41;;;19.40;100.00
14612;BME280;7392;52.078;11.650;2022-08-19T07:40:45;100494.72;;;19.43;100.00
14612;BME280;7392;52.078;11.650;2022-08-19T07:43:13;100489.41;;;19.42;100.00
14612;BME280;7392;52.078;11.650;2022-08-19T07:45:44;100480.50;;;19.40;100.00
14612;BME280;7392;52.078;11.650;2022-08-19T07:48:13;100472.50;;;19.38;100.00
14612;BME280;7392;52.078;11.650;2022-08-19T07:50:42;100475.13;;;19.40;100.00
14612;BME280;7392;52.078;11.650;2022-08-19T07:53:11;100473.34;;;19.40;100.00
14612;BME280;7392;52.078;11.650;2022-08-19T07:55:39;100474.13;;;19.42;100.00
14612;BME280;7392;52.078;11.650;2022-08-19T07:58:11;100486.56;;;19.45;100.00
14612;BME280;7392;52.078;11.650;2022-08-19T08:00:40;100480.19;;;19.48;100.00
14612;BME280;7392;52.078;11.650;2022-08-19T08:03:08;100487.25;;;19.50;100.00
14612;BME280;7392;52.078;11.650;2022-08-19T08:05:36;100490.84;;;19.51;100.00
14612;BME280;7392;52.078;11.650;2022-08-19T08:08:22;100492.50;;;19.53;100.00
14612;BME280;7392;52.078;11.650;2022-08-19T08:11:15;100486.94;;;19.58;100.00
14612;BME280;7392;52.078;11.650;2022-08-19T08:13:45;100487.66;;;19.61;100.00
14612;BME280;7392;52.078;11.650;2022-08-19T08:16:32;100485.66;;;19.67;100.00
14612;BME280;7392;52.078;11.650;2022-08-19T08:19:13;100492.72;;;19.69;100.00
14612;BME280;7392;52.078;11.650;2022-08-19T08:21:52;100497.28;;;19.67;100.00
14612;BME280;7392;52.078;11.650;2022-08-19T08:24:21;100500.94;;;19.66;100.00
14612;BME280;7392;52.078;11.650;2022-08-19T08:26:54;100492.94;;;19.65;100.00
14612;BME280;7392;52.078;11.650;2022-08-19T08:29:23;100503.84;;;19.61;100.00
14612;BME280;7392;52.078;11.650;2022-08-19T08:32:01;100500.41;;;19.58;100.00
14612;BME280;7392;52.078;11.650;2022-08-19T08:34:39;100508.47;;;19.58;100.00
14612;BME280;7392;52.078;11.650;2022-08-19T08:37:07;100515.66;;;19.57;100.00
14612;BME280;7392;52.078;11.650;2022-08-19T08:39:37;100515.75;;;19.56;100.00
14612;BME280;7392;52.078;11.650;2022-08-19T08:42:10;100526.59;;;19.54;100.00
14612;BME280;7392;52.078;11.650;2022-08-19T08:44:48;100524.03;;;19.51;100.00
14612;BME280;7392;52.078;11.650;2022-08-19T08:47:25;100530.34;;;19.50;100.00
14612;BME280;7392;52.078;11.650;2022-08-19T08:50:03;100530.56;;;19.46;100.00
14612;BME280;7392;52.078;11.650;2022-08-19T08:52:34;100536.94;;;19.43;100.00
14612;BME280;7392;52.078;11.650;2022-08-19T08:55:10;100538.03;;;19.39;100.00
14612;BME280;7392;52.078;11.650;2022-08-19T08:57:52;100544.34;;;19.38;100.00
14612;BME280;7392;52.078;11.650;2022-08-19T09:00:24;100538.03;;;19.39;100.00
14612;BME280;7392;52.078;11.650;2022-08-19T09:02:54;100538.88;;;19.39;100.00
14612;BME280;7392;52.078;11.650;2022-08-19T09:05:31;100535.31;;;19.39;100.00
14612;BME280;7392;52.078;11.650;2022-08-19T09:08:18;100537.97;;;19.40;100.00
14612;BME280;7392;52.078;11.650;2022-08-19T09:10:55;100536.13;;;19.41;100.00
14612;BME280;7392;52.078;11.650;2022-08-19T09:13:31;100537.84;;;19.42;100.00
14612;BME280;7392;52.078;11.650;2022-08-19T09:16:06;100541.50;;;19.41;100.00
14612;BME280;7392;52.078;11.650;2022-08-19T09:18:43;100544.16;;;19.42;100.00
14612;BME280;7392;52.078;11.650;2022-08-19T09:21:14;100535.09;;;19.43;100.00
14612;BME280;7392;52.078;11.650;2022-08-19T09:23:42;100538.63;;;19.46;100.00
14612;BME280;7392;52.078;11.650;2022-08-19T09:26:14;100530.47;;;19.47;100.00
14612;BME280;7392;52.078;11.650;2022-08-19T09:28:44;100535.84;;;19.47;100.00
14612;BME280;7392;52.078;11.650;2022-08-19T09:31:17;100544.81;;;19.48;100.00
14612;BME280;7392;52.078;11.650;2022-08-19T09:33:46;100536.69;;;19.49;100.00
14612;BME280;7392;52.078;11.650;2022-08-19T09:36:19;100539.09;;;19.55;100.00
14612;BME280;7392;52.078;11.650;2022-08-19T09:39:00;100539.72;;;19.62;100.00
14612;BME280;7392;52.078;11.650;2022-08-19T09:41:30;100541.34;;;19.66;100.00
14612;BME280;7392;52.078;11.650;2022-08-19T09:43:59;100544.84;;;19.68;100.00
14612;BME280;7392;52.078;11.650;2022-08-19T09:46:28;100553.72;;;19.70;100.00
14612;BME280;7392;52.078;11.650;2022-08-19T09:48:59;100551.69;;;19.77;100.00
14612;BME280;7392;52.078;11.650;2022-08-19T09:51:33;100555.13;;;19.80;100.00
14612;BME280;7392;52.078;11.650;2022-08-19T09:54:03;100555.84;;;19.84;100.00
14612;BME280;7392;52.078;11.650;2022-08-19T09:56:33;100557.41;;;19.90;100.00
14612;BME280;7392;52.078;11.650;2022-08-19T09:59:02;100557.28;;;19.93;100.00
14612;BME280;7392;52.078;11.650;2022-08-19T10:01:31;100562.53;;;19.96;100.00
14612;BME280;7392;52.078;11.650;2022-08-19T10:04:00;100560.75;;;19.95;100.00
14612;BME280;7392;52.078;11.650;2022-08-19T10:06:40;100545.44;;;19.97;100.00
14612;BME280;7392;52.078;11.650;2022-08-19T10:09:14;100550.66;;;20.00;100.00
14612;BME280;7392;52.078;11.650;2022-08-19T10:12:01;100555.06;;;20.03;100.00
14612;BME280;7392;52.078;11.650;2022-08-19T10:14:30;100553.03;;;20.08;100.00
14612;BME280;7392;52.078;11.650;2022-08-19T10:17:00;100559.09;;;20.13;100.00
14612;BME280;7392;52.078;11.650;2022-08-19T10:19:44;100557.06;;;20.18;100.00
14612;BME280;7392;52.078;11.650;2022-08-19T10:22:23;100547.81;;;20.24;100.00
14612;BME280;7392;52.078;11.650;2022-08-19T10:24:52;100554.09;;;20.24;100.00
14612;BME280;7392;52.078;11.650;2022-08-19T10:27:21;100546.56;;;20.31;100.00
14612;BME280;7392;52.078;11.650;2022-08-19T10:29:52;100542.59;;;20.40;100.00
14612;BME280;7392;52.078;11.650;2022-08-19T10:32:20;100549.31;;;20.50;100.00
14612;BME280;7392;52.078;11.650;2022-08-19T10:35:00;100544.34;;;20.60;100.00
14612;BME280;7392;52.078;11.650;2022-08-19T10:37:30;100530.09;;;20.77;100.00
14612;BME280;7392;52.078;11.650;2022-08-19T10:40:02;100527.91;;;20.85;100.00
14612;BME280;7392;52.078;11.650;2022-08-19T10:42:31;100514.06;;;20.92;100.00
14612;BME280;7392;52.078;11.650;2022-08-19T10:44:59;100524.03;;;21.09;100.00
14612;BME280;7392;52.078;11.650;2022-08-19T10:47:30;100520.78;;;21.20;100.00
14612;BME280;7392;52.078;11.650;2022-08-19T10:49:58;100520.56;;;21.25;100.00
14612;BME280;7392;52.078;11.650;2022-08-19T10:52:46;100522.78;;;21.34;100.00
14612;BME280;7392;52.078;11.650;2022-08-19T10:55:18;100522.91;;;21.50;100.00
14612;BME280;7392;52.078;11.650;2022-08-19T10:58:10;100513.63;;;21.73;100.00
14612;BME280;7392;52.078;11.650;2022-08-19T11:00:38;100520.38;;;21.82;99.20
14612;BME280;7392;52.078;11.650;2022-08-19T11:03:07;100522.19;;;21.81;99.36
14612;BME280;7392;52.078;11.650;2022-08-19T11:05:39;100526.78;;;21.79;98.18
14612;BME280;7392;52.078;11.650;2022-08-19T11:08:56;100512.19;;;21.83;98.47
14612;BME280;7392;52.078;11.650;2022-08-19T11:12:15;100506.91;;;21.98;98.28
14612;BME280;7392;52.078;11.650;2022-08-19T11:14:44;100511.47;;;22.13;98.19
14612;BME280;7392;52.078;11.650;2022-08-19T11:17:12;100513.63;;;22.24;96.67
14612;BME280;7392;52.078;11.650;2022-08-19T11:19:40;100517.69;;;22.33;96.14
14612;BME280;7392;52.078;11.650;2022-08-19T11:22:08;100515.84;;;22.33;93.99
14612;BME280;7392;52.078;11.650;2022-08-19T11:24:41;100521.00;;;22.38;93.28
14612;BME280;7392;52.078;11.650;2022-08-19T11:27:09;100527.13;;;22.41;92.47
14612;BME280;7392;52.078;11.650;2022-08-19T11:29:38;100522.09;;;22.51;92.77
14612;BME280;7392;52.078;11.650;2022-08-19T11:32:09;100521.47;;;22.62;92.45
14612;BME280;7392;52.078;11.650;2022-08-19T11:34:39;100518.69;;;22.64;89.73
14612;BME280;7392;52.078;11.650;2022-08-19T11:37:07;100527.66;;;22.64;89.40
14612;BME280;7392;52.078;11.650;2022-08-19T11:39:35;100528.53;;;22.65;89.22
14612;BME280;7392;52.078;11.650;2022-08-19T11:42:05;100533.63;;;22.71;89.51
14612;BME280;7392;52.078;11.650;2022-08-19T11:44:54;100536.84;;;22.77;89.29
14612;BME280;7392;52.078;11.650;2022-08-19T11:47:23;100532.56;;;22.89;88.42
14612;BME280;7392;52.078;11.650;2022-08-19T11:49:52;100518.75;;;22.94;87.34
14612;BME280;7392;52.078;11.650;2022-08-19T11:52:20;100527.31;;;23.02;86.34
14612;BME280;7392;52.078;11.650;2022-08-19T11:54:48;100524.91;;;23.13;87.13
14612;BME280;7392;52.078;11.650;2022-08-19T11:57:16;100524.44;;;23.21;86.23
14612;BME280;7392;52.078;11.650;2022-08-19T11:59:50;100526.53;;;23.32;85.90
14612;BME280;7392;52.078;11.650;2022-08-19T12:02:19;100529.38;;;23.45;85.49
14612;BME280;7392;52.078;11.650;2022-08-19T12:04:49;100511.69;;;23.53;84.82
14612;BME280;7392;52.078;11.650;2022-08-19T12:07:17;100519.78;;;23.69;84.91
14612;BME280;7392;52.078;11.650;2022-08-19T12:09:46;100517.28;;;23.81;84.20
14612;BME280;7392;52.078;11.650;2022-08-19T12:12:14;100508.34;;;23.95;83.94
14612;BME280;7392;52.078;11.650;2022-08-19T12:14:42;100522.97;;;24.06;83.84
14612;BME280;7392;52.078;11.650;2022-08-19T12:17:11;100519.22;;;24.09;82.82
14612;BME280;7392;52.078;11.650;2022-08-19T12:19:39;100517.09;;;24.14;82.54
14612;BME280;7392;52.078;11.650;2022-08-19T12:22:09;100511.56;;;24.16;81.54
14612;BME280;7392;52.078;11.650;2022-08-19T12:24:36;100523.28;;;24.16;80.85
14612;BME280;7392;52.078;11.650;2022-08-19T12:27:04;100513.78;;;24.23;80.82
14612;BME280;7392;52.078;11.650;2022-08-19T12:29:38;100520.47;;;24.32;80.81
14612;BME280;7392;52.078;11.650;2022-08-19T12:32:06;100519.63;;;24.46;80.98
14612;BME280;7392;52.078;11.650;2022-08-19T12:34:37;100518.25;;;24.53;79.77
14612;BME280;7392;52.078;11.650;2022-08-19T12:37:06;100523.66;;;24.53;78.41
14612;BME280;7392;52.078;11.650;2022-08-19T12:39:37;100509.72;;;24.59;77.92
14612;BME280;7392;52.078;11.650;2022-08-19T12:42:06;100506.44;;;24.69;77.87
14612;BME280;7392;52.078;11.650;2022-08-19T12:44:36;100507.84;;;24.74;77.46
14612;BME280;7392;52.078;11.650;2022-08-19T12:47:08;100507.66;;;24.77;77.37
14612;BME280;7392;52.078;11.650;2022-08-19T12:49:37;100502.59;;;24.86;77.73
14612;BME280;7392;52.078;11.650;2022-08-19T12:52:22;100504.13;;;24.90;77.65
14612;BME280;7392;52.078;11.650;2022-08-19T12:54:53;100502.03;;;24.80;75.39
14612;BME280;7392;52.078;11.650;2022-08-19T12:57:23;100495.94;;;24.77;75.89
14612;BME280;7392;52.078;11.650;2022-08-19T13:00:00;100508.81;;;24.73;75.91
14612;BME280;7392;52.078;11.650;2022-08-19T13:02:31;100505.25;;;24.73;75.79
14612;BME280;7392;52.078;11.650;2022-08-19T13:05:06;100505.81;;;24.78;76.40